createdAt,value
2019-05-18T00:04:21.359Z,26.97
2019-05-18T00:09:22.868Z,24.37
2019-05-18T00:14:24.401Z,27.57
2019-05-18T00:19:25.940Z,27.00
2019-05-18T00:24:27.539Z,27.33
2019-05-18T00:29:29.067Z,24.87
2019-05-18T00:34:30.446Z,25.37
2019-05-18T00:39:31.912Z,23.17
2019-05-18T00:44:33.385Z,23.63
2019-05-18T00:49:34.906Z,23.97
2019-05-18T00:54:36.312Z,25.13
2019-05-18T00:59:37.810Z,27.93
2019-05-18T01:04:39.339Z,28.53
2019-05-18T01:09:40.858Z,29.33
2019-05-18T01:14:42.385Z,30.53
2019-05-18T01:19:43.918Z,30.03
2019-05-18T01:24:45.224Z,30.90
2019-05-18T01:29:46.575Z,32.70
2019-05-18T01:34:47.997Z,31.40
2019-05-18T01:39:49.504Z,31.83
2019-05-18T01:44:51.417Z,33.23
2019-05-18T01:49:52.832Z,32.57
2019-05-18T01:54:54.324Z,33.77
2019-05-18T01:59:55.741Z,33.23
2019-05-18T02:04:57.269Z,35.00
2019-05-18T02:09:58.753Z,35.33
2019-05-18T02:15:00.286Z,33.53
2019-05-18T02:20:01.918Z,34.93
2019-05-18T02:25:03.641Z,34.00
2019-05-18T02:30:05.486Z,36.03
2019-05-18T02:35:06.882Z,35.07
2019-05-18T02:40:08.441Z,34.30
2019-05-18T02:45:09.959Z,36.90
2019-05-18T02:50:11.476Z,35.50
2019-05-18T02:55:12.954Z,35.77
2019-05-18T03:00:14.828Z,36.23
2019-05-18T03:05:16.354Z,34.83
2019-05-18T03:10:17.641Z,36.60
2019-05-18T03:15:19.190Z,35.67
2019-05-18T03:20:20.820Z,36.93
2019-05-18T03:25:22.358Z,36.13
2019-05-18T03:30:23.848Z,37.57
2019-05-18T03:35:25.237Z,36.47
2019-05-18T03:40:26.752Z,37.17
2019-05-18T03:45:28.331Z,38.80
2019-05-18T03:50:29.904Z,38.20
2019-05-18T03:55:31.410Z,37.53
2019-05-18T04:00:32.972Z,45.37
2019-05-18T04:05:34.512Z,40.53
2019-05-18T04:10:36.041Z,40.57
2019-05-18T04:15:37.490Z,41.57
2019-05-18T04:20:38.926Z,43.30
2019-05-18T04:25:43.745Z,43.27
2019-05-18T04:30:43.958Z,42.33
2019-05-18T04:35:45.479Z,42.10
2019-05-18T04:40:46.984Z,44.53
2019-05-18T04:45:48.618Z,40.10
2019-05-18T04:50:50.168Z,41.87
2019-05-18T04:55:51.659Z,44.63
2019-05-18T05:00:53.198Z,42.40
2019-05-18T05:05:54.760Z,42.33
2019-05-18T05:10:56.291Z,40.63
2019-05-18T05:15:57.811Z,39.63
2019-05-18T05:20:59.356Z,39.77
2019-05-18T05:26:01.058Z,39.37
2019-05-18T05:31:02.528Z,37.47
2019-05-18T05:36:04.082Z,34.60
2019-05-18T05:41:05.634Z,35.83
2019-05-18T05:46:07.090Z,34.03
2019-05-18T05:51:08.448Z,33.50
2019-05-18T05:56:10.121Z,34.40
2019-05-18T06:01:11.767Z,33.97
2019-05-18T06:06:13.436Z,33.10
2019-05-18T06:11:15.004Z,35.30
2019-05-18T06:16:16.508Z,35.57
2019-05-18T06:21:18.104Z,34.60
2019-05-18T06:26:19.668Z,37.50
2019-05-18T06:31:23.086Z,34.10
2019-05-18T06:36:24.634Z,38.70
2019-05-18T06:41:26.182Z,36.47
2019-05-18T06:51:42.891Z,36.10
2019-05-18T06:56:44.392Z,36.20
2019-05-18T07:01:45.938Z,37.85
2019-05-18T07:06:47.352Z,39.20
2019-05-18T07:11:49.034Z,36.87
2019-05-18T07:16:50.528Z,35.20
2019-05-18T07:21:52.088Z,37.48
2019-05-18T07:26:53.530Z,35.78
2019-05-18T07:31:54.980Z,34.83
2019-05-18T07:36:56.558Z,34.75
2019-05-18T07:41:58.062Z,34.58
2019-05-18T07:46:59.568Z,36.15
2019-05-18T07:52:01.125Z,33.28
2019-05-18T07:57:02.705Z,34.43
2019-05-18T08:02:04.173Z,35.65
2019-05-18T08:07:05.799Z,31.77
2019-05-18T08:12:07.385Z,33.90
2019-05-18T08:17:08.900Z,34.70
2019-05-18T08:22:10.458Z,34.35
2019-05-18T08:27:11.991Z,34.75
2019-05-18T08:32:13.474Z,34.73
2019-05-18T08:37:14.988Z,34.65
2019-05-18T08:42:16.596Z,34.70
2019-05-18T08:47:18.233Z,33.50
2019-05-18T08:52:19.674Z,36.15
2019-05-18T08:57:21.216Z,33.55
2019-05-18T09:02:22.719Z,32.50
2019-05-18T09:07:24.279Z,33.78
2019-05-18T09:12:25.747Z,32.78
2019-05-18T09:17:27.314Z,29.77
2019-05-18T09:22:28.826Z,31.75
2019-05-18T09:27:30.387Z,29.67
2019-05-18T09:32:31.779Z,28.57
2019-05-18T09:37:33.322Z,26.85
2019-05-18T09:42:34.853Z,26.00
2019-05-18T09:47:36.435Z,25.50
2019-05-18T09:52:46.185Z,22.37
2019-05-18T09:57:41.368Z,27.85
2019-05-18T10:02:42.797Z,25.43
2019-05-18T10:07:44.232Z,24.47
2019-05-18T10:12:45.758Z,24.27
2019-05-18T10:17:47.307Z,24.70
2019-05-18T10:22:59.046Z,25.77
2019-05-18T10:27:52.282Z,21.02
2019-05-18T10:32:53.679Z,21.37
2019-05-18T10:37:55.192Z,21.65
2019-05-18T10:42:56.696Z,25.82
2019-05-18T10:47:59.379Z,23.40
2019-05-18T10:53:00.918Z,25.88
2019-05-18T10:58:02.435Z,22.22
2019-05-18T11:03:03.873Z,21.25
2019-05-18T11:08:05.417Z,18.37
2019-05-18T11:13:06.954Z,19.55
2019-05-18T11:18:08.577Z,18.87
2019-05-18T11:23:10.154Z,18.00
2019-05-18T11:28:11.655Z,20.15
2019-05-18T11:33:13.184Z,24.18
2019-05-18T11:38:14.701Z,17.40
2019-05-18T11:43:16.271Z,16.52
2019-05-18T11:48:17.763Z,19.92
2019-05-18T11:53:19.293Z,16.67
2019-05-18T11:58:20.803Z,23.02
2019-05-18T12:03:22.355Z,20.43
2019-05-18T12:08:23.875Z,21.45
2019-05-18T12:13:25.555Z,19.62
2019-05-18T12:18:27.107Z,20.23
2019-05-18T12:23:28.657Z,20.72
2019-05-18T12:28:31.566Z,17.77
2019-05-18T12:33:33.140Z,21.48
2019-05-18T12:38:34.630Z,20.00
2019-05-18T12:43:36.170Z,19.67
2019-05-18T12:48:37.565Z,19.12
2019-05-18T12:53:39.055Z,18.77
2019-05-18T12:58:40.595Z,18.37
2019-05-18T13:03:42.149Z,19.73
2019-05-18T13:08:43.669Z,16.77
2019-05-18T13:13:45.351Z,16.65
2019-05-18T13:18:46.897Z,17.57
2019-05-18T13:23:48.302Z,18.07
2019-05-18T13:28:49.837Z,15.65
2019-05-18T13:33:51.502Z,16.05
2019-05-18T13:38:52.787Z,14.63
2019-05-18T13:43:54.051Z,14.85
2019-05-18T13:48:55.441Z,15.28
2019-05-18T13:53:56.669Z,15.53
2019-05-18T13:58:58.269Z,13.78
2019-05-18T14:03:59.730Z,14.70
2019-05-18T14:09:01.012Z,14.43
2019-05-18T14:14:02.657Z,19.42
2019-05-18T14:19:04.257Z,21.20
2019-05-18T14:24:05.741Z,20.32
2019-05-18T14:29:07.322Z,20.55
2019-05-18T14:34:08.880Z,21.60
2019-05-18T14:39:10.398Z,19.82
2019-05-18T14:44:12.062Z,21.52
2019-05-18T14:49:13.383Z,22.10
2019-05-18T14:54:14.681Z,21.45
2019-05-18T14:59:16.256Z,22.58
2019-05-18T15:04:17.490Z,23.18
2019-05-18T15:09:19.140Z,21.77
2019-05-18T15:14:20.689Z,22.30
2019-05-18T15:19:22.203Z,22.93
2019-05-18T15:24:23.834Z,21.70
2019-05-18T15:29:25.527Z,22.67
2019-05-18T15:34:27.155Z,22.32
2019-05-18T15:39:28.566Z,21.30
2019-05-18T15:44:30.142Z,21.23
2019-05-18T15:49:31.642Z,21.35
2019-05-18T15:54:36.147Z,21.73
2019-05-18T15:59:37.359Z,22.45
2019-05-18T16:04:38.610Z,19.62
2019-05-18T16:09:39.983Z,21.95
2019-05-18T16:14:41.376Z,21.33
2019-05-18T16:19:42.629Z,21.02
2019-05-18T16:24:43.891Z,21.57
2019-05-18T16:29:45.530Z,20.40
2019-05-18T16:34:47.077Z,32.60
2019-05-18T16:39:48.641Z,34.78
2019-05-18T16:44:50.177Z,35.65
2019-05-18T16:49:51.475Z,36.08
2019-05-18T16:54:53.054Z,37.53
2019-05-18T16:59:54.618Z,36.48
2019-05-18T17:04:56.256Z,38.25
2019-05-18T17:09:58.152Z,39.95
2019-05-18T17:14:59.626Z,40.63
2019-05-18T17:20:01.259Z,42.40
2019-05-18T17:25:02.939Z,40.38
2019-05-18T17:30:04.658Z,38.05
2019-05-18T17:35:06.156Z,38.17
2019-05-18T17:40:07.693Z,36.98
2019-05-18T17:45:09.127Z,38.20
2019-05-18T17:50:10.697Z,37.30
2019-05-18T17:55:12.205Z,38.65
2019-05-18T18:00:13.863Z,41.50
2019-05-18T18:05:15.380Z,41.55
2019-05-18T18:10:16.977Z,42.73
2019-05-18T18:15:18.428Z,45.80
2019-05-18T18:20:21.178Z,44.80
2019-05-18T18:25:22.779Z,45.10
2019-05-18T18:30:24.540Z,45.03
2019-05-18T18:35:26.085Z,45.45
2019-05-18T18:40:27.525Z,45.92
2019-05-18T18:45:29.129Z,45.95
2019-05-18T18:50:30.617Z,45.52
2019-05-18T18:55:32.237Z,45.23
2019-05-18T19:00:33.932Z,47.10
2019-05-18T19:05:35.584Z,46.92
2019-05-18T19:10:37.107Z,49.03
2019-05-18T19:15:38.610Z,51.53
2019-05-18T19:20:40.180Z,52.20
2019-05-18T19:25:41.738Z,54.00
2019-05-18T19:30:43.334Z,56.13
2019-05-18T19:35:44.756Z,53.95
2019-05-18T19:40:46.298Z,54.85
2019-05-18T19:45:47.849Z,60.43
2019-05-18T19:50:49.519Z,59.20
2019-05-18T19:55:51.030Z,56.65
2019-05-18T20:00:52.642Z,61.05
2019-05-18T20:05:54.260Z,57.65
2019-05-18T20:10:55.979Z,56.75
2019-05-18T20:15:57.478Z,58.42
2019-05-18T20:21:00.057Z,59.13
2019-05-18T20:26:01.626Z,58.80
2019-05-18T20:31:03.500Z,59.30
2019-05-18T20:36:05.166Z,58.52
2019-05-18T20:41:07.339Z,59.80
2019-05-18T20:46:08.879Z,60.50
2019-05-18T20:51:10.269Z,57.95
2019-05-18T20:56:11.847Z,60.83
2019-05-18T21:01:13.375Z,62.17
2019-05-18T21:06:15.327Z,60.23
2019-05-18T21:11:16.835Z,59.63
2019-05-18T21:16:18.463Z,60.75
2019-05-18T21:21:25.086Z,60.20
2019-05-18T21:26:23.627Z,62.23
2019-05-18T21:31:25.276Z,60.83
2019-05-18T21:36:26.789Z,63.68
2019-05-18T21:41:28.315Z,61.90
2019-05-18T21:46:29.813Z,59.30
2019-05-18T21:51:31.382Z,63.30
2019-05-18T21:56:32.914Z,62.60
2019-05-18T22:01:34.445Z,63.65
2019-05-18T22:06:35.981Z,61.90
2019-05-18T22:11:37.586Z,62.83
2019-05-18T22:16:39.114Z,62.38
2019-05-18T22:21:40.689Z,61.92
2019-05-18T22:26:42.091Z,60.17
2019-05-18T22:31:43.629Z,64.05
2019-05-18T22:36:45.069Z,61.30
2019-05-18T22:41:46.603Z,62.60
2019-05-18T22:46:48.028Z,63.60
2019-05-18T22:51:49.542Z,64.85
2019-05-18T22:56:51.192Z,62.73
2019-05-18T23:01:52.646Z,64.85
2019-05-18T23:06:54.177Z,63.25
2019-05-18T23:11:55.629Z,62.95
2019-05-18T23:16:57.214Z,62.25
2019-05-18T23:21:58.723Z,61.48
2019-05-18T23:27:00.054Z,65.12
2019-05-18T23:32:01.571Z,62.20
2019-05-18T23:37:03.095Z,63.08
2019-05-18T23:42:04.685Z,63.00
2019-05-18T23:47:06.223Z,62.27
2019-05-18T23:52:07.748Z,60.40
2019-05-18T23:57:09.283Z,64.53
